createdAt,value
2022-12-23T00:01:01.129Z,4.25
2022-12-23T00:03:28.404Z,4.43
2022-12-23T00:05:55.331Z,5.18
2022-12-23T00:08:22.272Z,4.50
2022-12-23T00:10:49.962Z,3.22
2022-12-23T00:13:37.297Z,4.35
2022-12-23T00:16:11.787Z,3.42
2022-12-23T00:18:38.840Z,5.20
2022-12-23T00:21:10.225Z,3.67
2022-12-23T00:23:38.588Z,3.67
2022-12-23T00:26:05.545Z,3.83
2022-12-23T00:28:32.472Z,4.35
2022-12-23T00:31:01.657Z,4.75
2022-12-23T00:33:36.244Z,4.25
2022-12-23T00:36:03.483Z,4.25
2022-12-23T00:38:48.831Z,4.82
2022-12-23T00:41:35.842Z,4.38
2022-12-23T00:44:03.527Z,3.90
2022-12-23T00:46:30.506Z,4.82
2022-12-23T00:49:16.108Z,5.28
2022-12-23T00:51:42.929Z,5.03
2022-12-23T00:54:09.857Z,6.55
2022-12-23T00:56:36.687Z,5.00
2022-12-23T00:59:03.800Z,3.88
2022-12-23T01:01:49.506Z,4.35
2022-12-23T01:04:35.273Z,5.15
2022-12-23T01:07:02.314Z,5.47
2022-12-23T01:09:29.238Z,4.88
2022-12-23T01:11:56.102Z,5.85
2022-12-23T01:14:22.991Z,4.38
2022-12-23T01:16:49.999Z,5.10
2022-12-23T01:19:16.855Z,3.38
2022-12-23T01:21:48.930Z,3.95
2022-12-23T01:24:15.803Z,5.53
2022-12-23T01:26:42.717Z,4.88
2022-12-23T01:29:09.582Z,3.60
2022-12-23T01:31:36.438Z,4.72
2022-12-23T01:34:03.324Z,3.45
2022-12-23T01:36:31.267Z,4.28
2022-12-23T01:38:58.129Z,3.30
2022-12-23T01:41:45.556Z,3.88
2022-12-23T01:44:48.206Z,4.32
2022-12-23T01:47:36.107Z,3.50
2022-12-23T01:50:26.247Z,4.93
2022-12-23T01:53:06.822Z,3.55
2022-12-23T01:55:38.519Z,4.55
2022-12-23T01:58:45.627Z,3.45
2022-12-23T02:01:31.678Z,4.30
2022-12-23T02:04:00.524Z,4.13
2022-12-23T02:06:53.448Z,4.15
2022-12-23T02:09:27.517Z,4.15
2022-12-23T02:12:21.365Z,3.85
2022-12-23T02:15:21.872Z,3.63
2022-12-23T02:17:56.040Z,3.38
2022-12-23T02:20:37.859Z,4.55
2022-12-23T02:23:29.027Z,4.35
2022-12-23T02:26:06.816Z,3.10
2022-12-23T02:29:01.538Z,4.03
2022-12-23T02:32:06.019Z,3.72
2022-12-23T02:34:45.013Z,3.28
2022-12-23T02:37:44.229Z,4.53
2022-12-23T02:40:23.013Z,4.10
2022-12-23T02:43:01.874Z,3.85
2022-12-23T02:45:39.373Z,4.18
2022-12-23T02:48:22.534Z,4.40
2022-12-23T02:50:49.331Z,3.65
2022-12-23T02:53:44.984Z,4.38
2022-12-23T02:56:11.790Z,4.35
2022-12-23T02:58:42.846Z,4.80
2022-12-23T03:01:09.772Z,3.65
2022-12-23T03:03:36.713Z,3.67
2022-12-23T03:06:15.211Z,2.80
2022-12-23T03:08:43.104Z,3.28
2022-12-23T03:11:14.704Z,3.45
2022-12-23T03:14:17.286Z,4.53
2022-12-23T03:16:47.006Z,2.72
2022-12-23T03:19:29.601Z,4.03
2022-12-23T03:22:08.657Z,3.08
2022-12-23T03:24:56.639Z,5.53
2022-12-23T03:27:27.978Z,4.72
2022-12-23T03:29:59.624Z,3.90
2022-12-23T03:32:26.556Z,3.70
2022-12-23T03:34:53.901Z,3.80
2022-12-23T03:37:20.967Z,3.92
2022-12-23T03:39:49.920Z,3.33
2022-12-23T03:42:20.419Z,4.07
2022-12-23T03:45:19.025Z,3.30
2022-12-23T03:47:45.289Z,4.93
2022-12-23T03:50:13.122Z,3.50
2022-12-23T03:52:42.606Z,3.45
2022-12-23T03:55:15.368Z,5.03
2022-12-23T03:57:45.264Z,3.83
2022-12-23T04:00:12.407Z,3.75
2022-12-23T04:02:59.599Z,3.78
2022-12-23T04:05:32.583Z,3.50
2022-12-23T04:08:13.128Z,2.50
2022-12-23T04:10:40.085Z,3.88
2022-12-23T04:13:07.085Z,3.80
2022-12-23T04:15:34.049Z,3.45
2022-12-23T04:18:00.834Z,3.15
2022-12-23T04:20:27.700Z,3.67
2022-12-23T04:22:54.518Z,3.33
2022-12-23T04:25:21.343Z,2.30
2022-12-23T04:27:48.224Z,4.55
2022-12-23T04:30:15.168Z,3.78
2022-12-23T04:32:42.356Z,3.25
2022-12-23T04:35:09.711Z,2.05
2022-12-23T04:37:36.549Z,1.73
2022-12-23T04:40:03.750Z,2.35
2022-12-23T04:42:30.570Z,3.42
2022-12-23T04:44:57.439Z,1.50
2022-12-23T04:47:24.320Z,2.03
2022-12-23T04:49:51.091Z,1.73
2022-12-23T04:52:17.973Z,2.47
2022-12-23T04:54:46.508Z,2.42
2022-12-23T04:57:13.800Z,1.52
2022-12-23T04:59:40.586Z,2.10
2022-12-23T05:02:08.097Z,2.67
2022-12-23T05:04:35.236Z,2.45
2022-12-23T05:07:02.207Z,2.88
2022-12-23T05:09:29.067Z,2.58
2022-12-23T05:11:55.994Z,2.78
2022-12-23T05:14:22.782Z,2.55
2022-12-23T05:16:49.688Z,2.10
2022-12-23T05:19:16.506Z,2.83
2022-12-23T05:21:43.396Z,3.35
2022-12-23T05:24:10.297Z,2.28
2022-12-23T05:26:37.372Z,2.00
2022-12-23T05:29:04.666Z,3.25
2022-12-23T05:31:31.606Z,1.55
2022-12-23T05:34:04.040Z,2.45
2022-12-23T05:36:33.131Z,2.50
2022-12-23T05:38:59.949Z,2.40
2022-12-23T05:41:26.818Z,2.20
2022-12-23T05:43:53.643Z,3.80
2022-12-23T05:46:26.207Z,2.92
2022-12-23T05:48:53.637Z,3.13
2022-12-23T05:51:20.398Z,4.45
2022-12-23T05:53:47.293Z,4.07
2022-12-23T05:56:14.136Z,2.47
2022-12-23T05:58:41.009Z,4.28
2022-12-23T06:01:07.960Z,4.13
2022-12-23T06:03:35.058Z,4.68
2022-12-23T06:06:02.085Z,4.03
2022-12-23T06:08:29.074Z,3.53
2022-12-23T06:10:55.869Z,4.45
2022-12-23T06:13:22.668Z,4.55
2022-12-23T06:15:49.482Z,3.60
2022-12-23T06:18:16.412Z,4.68
2022-12-23T06:20:46.953Z,4.80
2022-12-23T06:23:13.925Z,5.32
2022-12-23T06:25:40.840Z,5.22
2022-12-23T06:28:08.033Z,3.92
2022-12-23T06:30:35.095Z,4.60
2022-12-23T06:33:02.055Z,4.80
2022-12-23T06:35:28.911Z,4.65
2022-12-23T06:37:55.768Z,4.78
2022-12-23T06:40:22.621Z,5.30
2022-12-23T06:42:49.624Z,6.50
2022-12-23T06:45:16.513Z,5.88
2022-12-23T06:47:43.445Z,5.20
2022-12-23T06:50:10.883Z,6.45
2022-12-23T06:52:37.742Z,6.53
2022-12-23T06:55:05.084Z,9.32
2022-12-23T06:57:31.971Z,6.28
2022-12-23T06:59:58.798Z,6.93
2022-12-23T07:02:25.737Z,7.38
2022-12-23T07:04:52.585Z,5.93
2022-12-23T07:07:19.424Z,5.57
2022-12-23T07:09:46.378Z,6.07
2022-12-23T07:12:13.291Z,4.75
2022-12-23T07:14:40.143Z,5.22
2022-12-23T07:17:07.245Z,5.30
2022-12-23T07:19:34.227Z,5.25
2022-12-23T07:22:01.743Z,5.28
2022-12-23T07:24:28.704Z,5.55
2022-12-23T07:26:56.011Z,5.00
2022-12-23T07:29:22.911Z,6.13
2022-12-23T07:31:49.794Z,8.00
2022-12-23T07:34:16.871Z,6.47
2022-12-23T07:36:43.683Z,7.35
2022-12-23T07:39:10.638Z,8.18
2022-12-23T07:41:37.512Z,6.15
2022-12-23T07:44:07.452Z,7.93
2022-12-23T07:46:34.557Z,6.40
2022-12-23T07:49:01.479Z,5.45
2022-12-23T07:51:28.481Z,4.35
2022-12-23T07:53:55.437Z,4.80
2022-12-23T07:56:25.467Z,5.00
2022-12-23T07:58:52.919Z,4.95
2022-12-23T08:01:20.180Z,5.38
2022-12-23T08:03:47.496Z,5.68
2022-12-23T08:06:15.208Z,5.32
2022-12-23T08:08:43.827Z,6.35
2022-12-23T08:11:11.300Z,6.78
2022-12-23T08:13:39.294Z,5.00
2022-12-23T08:16:06.634Z,5.30
2022-12-23T08:18:35.298Z,5.93
2022-12-23T08:21:07.043Z,6.50
2022-12-23T08:23:33.943Z,6.15
2022-12-23T08:26:07.579Z,9.13
2022-12-23T08:28:34.828Z,5.80
2022-12-23T08:31:12.309Z,5.45
2022-12-23T08:33:39.573Z,8.32
2022-12-23T08:36:07.439Z,6.75
2022-12-23T08:38:34.685Z,7.72
2022-12-23T08:41:01.505Z,7.25
2022-12-23T08:43:33.771Z,7.82
2022-12-23T08:46:02.780Z,5.35
2022-12-23T08:48:29.626Z,4.95
2022-12-23T08:50:56.511Z,9.70
2022-12-23T08:53:23.320Z,6.65
2022-12-23T08:55:50.185Z,5.95
2022-12-23T08:58:17.000Z,5.35
2022-12-23T09:00:43.964Z,4.40
2022-12-23T09:03:10.934Z,5.32
2022-12-23T09:05:41.705Z,2.97
2022-12-23T09:08:09.015Z,2.65
2022-12-23T09:10:43.710Z,4.82
2022-12-23T09:13:13.911Z,5.05
2022-12-23T09:15:45.040Z,3.15
2022-12-23T09:18:12.031Z,3.80
2022-12-23T09:20:38.881Z,5.57
2022-12-23T09:23:06.357Z,3.83
2022-12-23T09:25:33.597Z,2.75
2022-12-23T09:28:00.451Z,2.35
2022-12-23T09:30:27.430Z,1.92
2022-12-23T09:32:54.271Z,2.17
2022-12-23T09:35:21.145Z,2.55
2022-12-23T09:37:47.987Z,2.53
2022-12-23T09:40:15.668Z,2.95
2022-12-23T09:42:57.325Z,2.88
2022-12-23T09:45:40.737Z,2.63
2022-12-23T09:48:11.818Z,2.88
2022-12-23T09:50:38.740Z,4.80
2022-12-23T09:53:06.332Z,1.95
2022-12-23T09:56:02.729Z,2.80
2022-12-23T09:58:57.459Z,3.88
2022-12-23T10:01:45.037Z,2.42
2022-12-23T10:04:26.877Z,3.03
2022-12-23T10:07:04.499Z,3.03
2022-12-23T10:09:32.958Z,4.85
2022-12-23T10:12:00.004Z,3.97
2022-12-23T10:14:31.088Z,1.88
2022-12-23T10:17:02.845Z,2.85
2022-12-23T10:19:41.996Z,3.63
2022-12-23T10:22:29.976Z,3.30
2022-12-23T10:24:59.967Z,3.40
2022-12-23T10:27:30.039Z,2.35
2022-12-23T10:30:09.631Z,3.42
2022-12-23T10:33:04.259Z,2.58
2022-12-23T10:35:49.278Z,4.55
2022-12-23T10:38:18.847Z,3.47
2022-12-23T10:40:48.505Z,2.75
2022-12-23T10:43:24.275Z,5.57
2022-12-23T10:46:01.837Z,4.55
2022-12-23T10:48:58.093Z,4.78
2022-12-23T10:51:32.763Z,4.07
2022-12-23T10:54:10.529Z,5.00
2022-12-23T10:56:37.530Z,4.80
2022-12-23T10:59:04.395Z,3.75
2022-12-23T11:01:31.567Z,4.72
2022-12-23T11:04:03.576Z,4.10
2022-12-23T11:06:36.872Z,4.75
2022-12-23T11:09:04.637Z,5.53
2022-12-23T11:12:07.726Z,5.28
2022-12-23T11:14:54.949Z,6.57
2022-12-23T11:17:26.265Z,4.50
2022-12-23T11:20:11.421Z,5.93
2022-12-23T11:22:55.393Z,5.32
2022-12-23T11:25:25.515Z,5.90
2022-12-23T11:27:54.637Z,4.35
2022-12-23T11:30:21.513Z,6.22
2022-12-23T11:32:48.363Z,5.03
2022-12-23T11:35:29.572Z,7.18
2022-12-23T11:37:57.471Z,5.47
2022-12-23T11:40:29.718Z,5.18
2022-12-23T11:43:01.510Z,4.90
2022-12-23T11:45:32.234Z,4.60
2022-12-23T11:47:59.252Z,6.38
2022-12-23T11:50:28.421Z,6.20
2022-12-23T11:53:00.704Z,5.80
2022-12-23T11:55:29.844Z,5.00
2022-12-23T11:57:56.769Z,6.85
2022-12-23T12:00:37.006Z,4.75
2022-12-23T12:03:04.042Z,5.15
2022-12-23T12:05:32.789Z,7.18
2022-12-23T12:08:01.303Z,7.53
2022-12-23T12:10:32.927Z,8.10
2022-12-23T12:13:03.780Z,5.93
2022-12-23T12:15:37.732Z,7.20
2022-12-23T12:18:06.531Z,6.95
2022-12-23T12:20:40.031Z,6.55
2022-12-23T12:23:16.795Z,6.72
2022-12-23T12:25:55.510Z,8.98
2022-12-23T12:28:29.421Z,6.85
2022-12-23T12:31:20.329Z,6.88
2022-12-23T12:33:58.255Z,7.43
2022-12-23T12:36:38.541Z,8.10
2022-12-23T12:39:05.400Z,8.13
2022-12-23T12:41:38.214Z,5.75
2022-12-23T12:44:23.090Z,9.25
2022-12-23T12:46:54.008Z,9.23
2022-12-23T12:49:35.252Z,4.85
2022-12-23T12:52:12.488Z,9.15
2022-12-23T12:54:39.703Z,11.50
2022-12-23T12:57:09.543Z,9.23
2022-12-23T12:59:37.348Z,9.27
2022-12-23T13:02:29.308Z,7.55
2022-12-23T13:05:30.155Z,8.13
2022-12-23T13:08:24.741Z,7.05
2022-12-23T13:10:58.928Z,7.75
2022-12-23T13:13:43.724Z,8.07
2022-12-23T13:16:51.063Z,9.45
2022-12-23T13:19:42.876Z,8.23
2022-12-23T13:22:11.591Z,7.27
2022-12-23T13:25:01.764Z,9.88
2022-12-23T13:27:35.337Z,8.98
2022-12-23T13:30:15.072Z,11.63
2022-12-23T13:32:47.879Z,8.43
2022-12-23T13:35:18.842Z,9.52
2022-12-23T13:37:49.349Z,12.80
2022-12-23T13:40:57.003Z,7.85
2022-12-23T13:43:24.995Z,9.88
2022-12-23T13:45:52.790Z,9.93
2022-12-23T13:48:25.530Z,9.77
2022-12-23T13:51:18.815Z,11.43
2022-12-23T13:54:04.980Z,14.07
2022-12-23T13:57:12.697Z,9.23
2022-12-23T13:59:42.591Z,7.40
2022-12-23T14:02:37.455Z,7.95
2022-12-23T14:05:05.328Z,8.18
2022-12-23T14:07:32.774Z,7.85
2022-12-23T14:10:09.558Z,7.05
2022-12-23T14:12:38.225Z,10.45
2022-12-23T14:15:07.921Z,11.25
2022-12-23T14:18:09.651Z,8.82
2022-12-23T14:20:43.148Z,9.45
2022-12-23T14:23:32.414Z,10.75
2022-12-23T14:26:15.029Z,8.95
2022-12-23T14:29:00.937Z,8.65
2022-12-23T14:31:35.269Z,10.48
2022-12-23T14:34:20.541Z,12.43
2022-12-23T14:37:21.931Z,9.05
2022-12-23T14:39:49.279Z,9.52
2022-12-23T14:42:36.643Z,9.23
2022-12-23T14:45:28.798Z,10.82
2022-12-23T14:47:55.800Z,13.93
2022-12-23T14:50:41.551Z,9.20
2022-12-23T14:53:31.487Z,9.73
2022-12-23T14:56:36.332Z,9.85
2022-12-23T14:59:21.143Z,11.13
2022-12-23T15:01:53.058Z,10.43
2022-12-23T15:04:26.959Z,11.60
2022-12-23T15:06:55.633Z,12.93
2022-12-23T15:09:30.643Z,16.02
2022-12-23T15:12:02.384Z,14.30
2022-12-23T15:14:38.457Z,13.48
2022-12-23T15:17:15.547Z,15.02
2022-12-23T15:19:47.045Z,12.57
2022-12-23T15:22:23.777Z,11.93
2022-12-23T15:24:55.233Z,11.48
2022-12-23T15:27:30.458Z,12.73
2022-12-23T15:29:57.620Z,9.95
2022-12-23T15:32:24.625Z,12.48
2022-12-23T15:34:51.939Z,13.57
2022-12-23T15:37:27.460Z,11.70
2022-12-23T15:40:04.524Z,12.18
2022-12-23T15:42:38.452Z,10.50
2022-12-23T15:45:31.080Z,11.07
2022-12-23T15:47:57.926Z,10.13
2022-12-23T15:50:24.750Z,10.43
2022-12-23T15:52:51.620Z,10.05
2022-12-23T15:55:29.602Z,8.85
2022-12-23T15:57:56.432Z,10.45
2022-12-23T16:00:31.635Z,11.60
2022-12-23T16:03:01.264Z,8.68
2022-12-23T16:05:33.525Z,9.43
2022-12-23T16:08:21.808Z,9.55
2022-12-23T16:11:16.643Z,8.80
2022-12-23T16:14:02.763Z,8.80
2022-12-23T16:16:39.206Z,10.77
2022-12-23T16:19:07.051Z,9.82
2022-12-23T16:21:35.205Z,8.68
2022-12-23T16:24:03.125Z,7.10
2022-12-23T16:26:30.008Z,10.43
2022-12-23T16:28:59.442Z,7.03
2022-12-23T16:31:26.308Z,10.35
2022-12-23T16:33:59.454Z,9.25
2022-12-23T16:36:26.568Z,8.82
2022-12-23T16:39:16.471Z,10.00
2022-12-23T16:41:43.389Z,10.18
2022-12-23T16:44:10.234Z,10.32
2022-12-23T16:46:39.158Z,13.05
2022-12-23T16:49:08.223Z,8.30
2022-12-23T16:51:35.097Z,9.45
2022-12-23T16:54:02.023Z,10.65
2022-12-23T16:56:32.163Z,11.10
2022-12-23T16:58:59.020Z,10.13
2022-12-23T17:01:27.248Z,9.18
2022-12-23T17:03:55.789Z,10.85
2022-12-23T17:06:23.020Z,12.52
2022-12-23T17:08:49.886Z,10.75
2022-12-23T17:11:25.565Z,12.32
2022-12-23T17:13:55.307Z,14.32
2022-12-23T17:18:52.951Z,13.07
2022-12-23T17:21:25.564Z,14.48
2022-12-23T17:23:58.505Z,11.80
2022-12-23T17:26:25.345Z,18.90
2022-12-23T17:28:52.183Z,12.20
2022-12-23T17:31:26.221Z,13.70
2022-12-23T17:33:54.422Z,11.73
2022-12-23T17:36:21.787Z,13.95
2022-12-23T17:38:48.832Z,17.75
2022-12-23T17:41:28.764Z,16.52
2022-12-23T17:43:55.775Z,17.45
2022-12-23T17:46:22.782Z,16.25
2022-12-23T17:48:49.749Z,14.23
2022-12-23T17:51:21.016Z,15.30
2022-12-23T17:53:56.822Z,18.38
2022-12-23T17:56:24.966Z,17.85
2022-12-23T17:58:51.919Z,17.15
2022-12-23T18:01:23.913Z,16.40
2022-12-23T18:03:51.036Z,18.58
2022-12-23T18:06:19.653Z,20.77
2022-12-23T18:08:46.631Z,13.10
2022-12-23T18:11:35.053Z,20.30
2022-12-23T18:14:01.912Z,19.10
2022-12-23T18:16:28.838Z,16.83
2022-12-23T18:18:56.443Z,17.20
2022-12-23T18:21:24.788Z,18.80
2022-12-23T18:23:52.169Z,20.48
2022-12-23T18:26:18.938Z,23.05
2022-12-23T18:28:45.784Z,19.70
2022-12-23T18:31:20.542Z,12.88
2022-12-23T18:33:47.514Z,18.40
2022-12-23T18:36:20.555Z,21.75
2022-12-23T18:38:47.565Z,16.23
2022-12-23T18:41:14.451Z,16.20
2022-12-23T18:43:41.498Z,20.00
2022-12-23T18:46:08.533Z,18.48
2022-12-23T18:48:35.468Z,16.52
2022-12-23T18:51:02.435Z,21.70
2022-12-23T18:53:29.320Z,12.38
2022-12-23T18:55:56.330Z,17.23
2022-12-23T18:58:23.425Z,16.83
2022-12-23T19:00:52.603Z,17.42
2022-12-23T19:03:27.345Z,17.60
2022-12-23T19:05:54.487Z,16.40
2022-12-23T19:08:26.113Z,20.40
2022-12-23T19:13:20.553Z,18.20
2022-12-23T19:15:47.415Z,14.93
2022-12-23T19:18:15.288Z,18.98
2022-12-23T19:20:43.072Z,15.80
2022-12-23T19:23:10.477Z,26.05
2022-12-23T19:25:40.071Z,18.00
2022-12-23T19:28:06.931Z,19.30
2022-12-23T19:30:34.586Z,22.98
2022-12-23T19:33:01.487Z,18.48
2022-12-23T19:35:28.381Z,20.50
2022-12-23T19:37:55.268Z,24.17
2022-12-23T19:40:22.174Z,28.10
2022-12-23T19:42:49.296Z,28.65
2022-12-23T19:45:17.113Z,22.48
2022-12-23T19:47:44.063Z,25.70
2022-12-23T19:50:11.223Z,20.13
2022-12-23T19:52:38.061Z,18.95
2022-12-23T19:55:05.374Z,20.33
2022-12-23T19:57:32.483Z,21.90
2022-12-23T19:59:59.340Z,23.00
2022-12-23T20:02:26.281Z,23.73
2022-12-23T20:04:53.209Z,18.45
2022-12-23T20:07:20.067Z,21.05
2022-12-23T20:09:47.049Z,17.40
2022-12-23T20:12:13.920Z,21.85
2022-12-23T20:14:40.780Z,24.10
2022-12-23T20:17:07.624Z,21.20
2022-12-23T20:19:36.086Z,23.83
2022-12-23T20:22:04.778Z,21.95
2022-12-23T20:24:33.267Z,21.05
2022-12-23T20:27:00.189Z,25.42
2022-12-23T20:29:29.118Z,24.58
2022-12-23T20:31:56.165Z,23.38
2022-12-23T20:34:23.050Z,21.30
2022-12-23T20:36:49.980Z,23.35
2022-12-23T20:39:16.879Z,22.60
2022-12-23T20:41:43.915Z,19.27
2022-12-23T20:46:57.751Z,21.00
2022-12-23T20:49:24.629Z,25.67
2022-12-23T20:51:51.535Z,26.92
2022-12-23T20:54:18.425Z,23.75
2022-12-23T20:56:45.375Z,29.95
2022-12-23T20:59:12.223Z,26.23
2022-12-23T21:01:40.036Z,27.23
2022-12-23T21:04:08.643Z,25.13
2022-12-23T21:06:35.749Z,25.85
2022-12-23T21:09:04.896Z,24.55
2022-12-23T21:11:33.116Z,30.80
2022-12-23T21:14:06.781Z,27.52
2022-12-23T21:16:35.395Z,26.67
2022-12-23T21:19:02.294Z,24.30
2022-12-23T21:21:31.064Z,25.40
2022-12-23T21:23:59.719Z,23.95
2022-12-23T21:26:27.911Z,26.13
2022-12-23T21:28:55.629Z,28.25
2022-12-23T21:31:23.357Z,20.23
2022-12-23T21:33:50.711Z,18.23
2022-12-23T21:36:20.819Z,25.17
2022-12-23T21:38:48.646Z,27.85
2022-12-23T21:41:20.016Z,21.80
2022-12-23T21:43:47.223Z,23.13
2022-12-23T21:46:15.804Z,26.60
2022-12-23T21:48:42.824Z,24.33
2022-12-23T21:51:13.221Z,20.55
2022-12-23T21:53:40.219Z,20.30
2022-12-23T21:56:08.926Z,19.02
2022-12-23T21:58:35.912Z,24.80
2022-12-23T22:01:12.895Z,16.95
2022-12-23T22:03:39.913Z,22.17
2022-12-23T22:06:10.483Z,26.23
2022-12-23T22:08:38.452Z,23.70
2022-12-23T22:11:12.886Z,23.58
2022-12-23T22:13:40.222Z,20.85
2022-12-23T22:16:15.518Z,20.65
2022-12-23T22:18:42.649Z,18.55
2022-12-23T22:21:11.421Z,30.00
2022-12-23T22:23:38.440Z,21.05
2022-12-23T22:26:06.055Z,18.80
2022-12-23T22:28:34.038Z,19.10
2022-12-23T22:31:08.616Z,22.55
2022-12-23T22:33:35.647Z,23.63
2022-12-23T22:36:03.217Z,22.13
2022-12-23T22:38:30.350Z,22.92
2022-12-23T22:40:57.310Z,29.70
2022-12-23T22:43:24.177Z,22.05
2022-12-23T22:45:58.187Z,18.80
2022-12-23T22:48:25.659Z,19.83
2022-12-23T22:51:00.561Z,19.23
2022-12-23T22:53:29.884Z,30.38
2022-12-23T22:56:01.236Z,20.77
2022-12-23T22:58:28.485Z,24.83
2022-12-23T23:00:55.485Z,23.83
2022-12-23T23:03:22.455Z,24.38
2022-12-23T23:05:59.154Z,22.90
2022-12-23T23:08:26.250Z,22.85
2022-12-23T23:10:53.264Z,24.08
2022-12-23T23:13:20.116Z,24.38
2022-12-23T23:15:47.647Z,31.15
2022-12-23T23:18:14.889Z,23.52
2022-12-23T23:20:41.873Z,24.52
2022-12-23T23:23:08.887Z,21.70
2022-12-23T23:25:38.599Z,23.70
2022-12-23T23:28:05.551Z,25.17
2022-12-23T23:30:34.996Z,25.42
2022-12-23T23:33:01.878Z,22.60
2022-12-23T23:35:28.669Z,23.40
2022-12-23T23:37:55.562Z,26.65
2022-12-23T23:40:22.408Z,23.35
2022-12-23T23:42:49.367Z,25.42
2022-12-23T23:45:16.155Z,20.83
2022-12-23T23:47:43.004Z,20.20
2022-12-23T23:50:09.949Z,23.58
2022-12-23T23:52:36.819Z,22.98
2022-12-23T23:55:03.777Z,20.95
2022-12-23T23:57:30.909Z,23.55
2022-12-23T23:59:57.818Z,24.20
